Time;durP1;ratioP1;P1;durP2;ratioP2;P2;SDS_P1;SDS_P2;PMS_P1;PMS_P2;Temp;Humidity;BMP_temperature;BMP_pressure;BME280_temperature;BME280_humidity;BME280_pressure;Samples;Min_cycle;Max_cycle;Signal;HPM_P1;HPM_P2
2022/01/06 00:01:24;;;;;;;1.70;0.80;;;4.00;99.90;3.90;99397.00;;;;4993628;27;108857;-70
2022/01/06 00:03:49;;;;;;;3.37;1.10;;;4.10;99.90;3.90;99411.00;;;;4980779;28;116393;-68
2022/01/06 00:06:15;;;;;;;2.00;1.00;;;4.10;99.90;3.90;99411.00;;;;4994416;28;88799;-68
2022/01/06 00:08:41;;;;;;;2.23;1.73;;;4.10;99.90;3.90;99408.00;;;;4993519;27;98615;-68
2022/01/06 00:11:09;;;;;;;2.03;1.00;;;4.10;99.90;3.90;99414.00;;;;4977247;28;87052;-68
2022/01/06 00:14:03;;;;;;;1.07;0.97;;;4.00;99.90;3.90;99411.00;;;;4974371;28;90154;-69
2022/01/06 00:16:45;;;;;;;1.40;1.30;;;4.10;99.90;3.90;99415.00;;;;4993555;28;87544;-69
2022/01/06 00:24:26;;;;;;;2.77;1.23;;;4.10;99.90;3.90;99405.00;;;;4978337;28;87674;-69
2022/01/06 00:26:52;;;;;;;1.20;1.10;;;4.10;99.90;3.90;99419.00;;;;4996943;27;101706;-69
2022/01/06 00:29:18;;;;;;;5.33;1.53;;;4.10;99.90;4.00;99421.00;;;;4996996;28;88198;-69
2022/01/06 00:31:45;;;;;;;4.57;1.50;;;4.10;99.90;4.00;99415.00;;;;4998385;27;87748;-70
2022/01/06 00:34:11;;;;;;;1.37;1.20;;;4.20;99.90;4.00;99412.00;;;;4978579;28;90301;-69
2022/01/06 00:36:38;;;;;;;2.00;1.43;;;4.20;99.90;4.00;99419.00;;;;4999052;27;87923;-70
2022/01/06 00:39:05;;;;;;;3.30;1.50;;;4.20;99.90;4.00;99424.00;;;;4998134;27;87892;-68
2022/01/06 00:41:33;;;;;;;1.63;0.93;;;4.20;99.90;4.00;99424.00;;;;4998204;27;88105;-68
2022/01/06 00:43:59;;;;;;;1.30;0.80;;;4.20;99.90;4.00;99428.00;;;;5016062;27;88759;-69
2022/01/06 00:46:25;;;;;;;0.70;0.50;;;4.30;99.90;4.10;99430.00;;;;5016359;27;105923;-69
2022/01/06 00:48:51;;;;;;;0.53;0.50;;;4.20;99.90;4.10;99440.00;;;;5016293;27;91694;-71
2022/01/06 00:51:16;;;;;;;1.93;0.93;;;4.30;99.90;4.10;99429.00;;;;4997478;27;108226;-71
2022/01/06 00:53:42;;;;;;;0.70;0.67;;;4.30;99.90;4.10;99443.00;;;;5009811;27;104655;-71
2022/01/06 00:56:08;;;;;;;1.30;0.80;;;4.20;99.90;4.10;99446.00;;;;4996725;28;92667;-70
2022/01/06 00:58:34;;;;;;;0.63;0.60;;;4.30;99.90;4.10;99449.00;;;;5012226;27;109771;-72
2022/01/06 01:00:59;;;;;;;1.30;0.60;;;4.30;99.90;4.10;99449.00;;;;4992719;28;108605;-70
2022/01/06 01:03:27;;;;;;;1.23;0.83;;;4.30;99.90;4.10;99450.00;;;;4996304;27;88103;-71
2022/01/06 01:05:55;;;;;;;0.80;0.50;;;4.40;99.90;4.10;99445.00;;;;4997130;28;87590;-70
2022/01/06 01:08:25;;;;;;;2.43;0.63;;;4.30;99.90;4.10;99458.00;;;;4995780;28;89045;-70
2022/01/06 01:10:54;;;;;;;1.60;0.80;;;4.20;99.90;4.10;99470.00;;;;4981479;27;88362;-69
2022/01/06 01:13:29;;;;;;;0.67;0.40;;;4.30;99.90;4.10;99466.00;;;;5016066;27;88153;-70
2022/01/06 01:15:58;;;;;;;0.30;0.30;;;4.30;99.90;4.10;99476.00;;;;5016998;27;88393;-69
2022/01/06 01:18:25;;;;;;;0.93;0.60;;;4.30;99.90;4.10;99478.00;;;;5016981;27;87825;-70
2022/01/06 01:20:53;;;;;;;4.77;0.67;;;4.30;99.90;4.10;99479.00;;;;4985436;28;88027;-70
2022/01/06 01:23:21;;;;;;;1.60;1.00;;;4.30;99.90;4.00;99486.00;;;;4996229;27;89613;-70
2022/01/06 01:25:47;;;;;;;1.27;0.73;;;4.30;99.90;4.00;99490.00;;;;4997020;28;88436;-69
2022/01/06 01:28:15;;;;;;;4.57;0.80;;;4.20;99.90;4.00;99486.00;;;;5010268;27;89290;-70
2022/01/06 01:31:19;;;;;;;0.60;0.60;;;4.20;99.90;4.00;99511.00;;;;5016961;27;87972;-70
2022/01/06 01:33:30;;;;;;;2.40;0.93;;;4.20;99.90;4.00;99512.00;;;;4982782;28;89194;-69
2022/01/06 01:35:55;;;;;;;2.13;0.83;;;4.20;99.90;4.00;99513.00;;;;5002651;27;90271;-70
2022/01/06 01:38:21;;;;;;;1.20;0.67;;;4.20;99.90;3.90;99507.00;;;;5014764;27;88033;-69
2022/01/06 01:40:47;;;;;;;0.73;0.70;;;4.20;99.90;4.00;99504.00;;;;5015304;27;109878;-70
2022/01/06 01:43:12;;;;;;;1.60;0.70;;;4.20;99.90;4.00;99498.00;;;;5014707;27;114249;-69
2022/01/06 01:45:45;;;;;;;1.27;0.53;;;4.20;99.90;4.00;99503.00;;;;5015133;27;116951;-69
2022/01/06 01:48:19;;;;;;;2.93;0.80;;;4.20;99.90;4.00;99529.00;;;;5009233;27;87538;-68
2022/01/06 01:50:45;;;;;;;1.80;0.70;;;4.20;99.90;3.90;99515.00;;;;4997730;27;88181;-69
2022/01/06 01:53:11;;;;;;;1.90;0.73;;;4.10;99.90;3.90;99521.00;;;;4994842;28;118717;-69
2022/01/06 01:55:37;;;;;;;1.90;0.90;;;4.20;99.90;3.90;99525.00;;;;4977681;28;87569;-68
2022/01/06 01:58:03;;;;;;;2.03;0.70;;;4.10;99.90;3.90;99530.00;;;;5006701;27;110456;-70
2022/01/06 02:00:30;;;;;;;1.03;0.60;;;4.10;99.90;3.90;99526.00;;;;5015812;27;99895;-71
2022/01/06 02:02:57;;;;;;;0.97;0.60;;;4.00;99.90;3.90;99525.00;;;;4989012;28;87694;-70
2022/01/06 02:05:26;;;;;;;0.53;0.40;;;4.10;99.90;3.90;99536.00;;;;4996325;28;88064;-71
2022/01/06 02:08:00;;;;;;;0.47;0.40;;;4.10;99.90;3.90;99530.00;;;;4996614;28;87769;-69
2022/01/06 02:10:27;;;;;;;1.27;0.73;;;4.10;99.90;3.90;99539.00;;;;4977760;28;87850;-70
2022/01/06 02:12:55;;;;;;;0.90;0.90;;;4.10;99.90;3.90;99528.00;;;;4995529;27;88433;-70
2022/01/06 02:15:22;;;;;;;1.70;1.00;;;4.10;99.90;3.90;99535.00;;;;4995264;28;87814;-70
2022/01/06 02:17:50;;;;;;;1.53;1.37;;;4.10;99.90;3.90;99536.00;;;;4996265;27;97637;-69
2022/01/06 02:20:19;;;;;;;1.07;1.00;;;4.70;99.90;3.80;99539.00;;;;4996131;27;88373;-70
2022/01/06 02:22:46;;;;;;;3.23;1.53;;;4.10;99.90;3.80;99542.00;;;;5014093;27;89691;-70
2022/01/06 02:25:14;;;;;;;4.07;1.53;;;4.10;99.90;3.80;99546.00;;;;5015252;27;89225;-69
2022/01/06 02:27:41;;;;;;;2.60;1.20;;;4.00;99.90;3.80;99538.00;;;;5015920;27;87744;-69
2022/01/06 02:30:08;;;;;;;3.27;1.47;;;4.00;99.90;3.80;99538.00;;;;5014103;27;87800;-70
2022/01/06 02:32:34;;;;;;;3.67;1.40;;;4.00;99.90;3.80;99538.00;;;;5014414;27;88914;-70
2022/01/06 02:35:08;;;;;;;2.03;1.20;;;4.10;99.90;3.80;99552.00;;;;4996028;27;100592;-69
2022/01/06 02:37:35;;;;;;;1.50;1.27;;;4.00;99.90;3.80;99560.00;;;;4986867;28;94760;-69
2022/01/06 02:40:04;;;;;;;1.50;1.40;;;4.00;99.90;3.80;99550.00;;;;4995209;28;86721;-69
2022/01/06 02:42:31;;;;;;;3.97;1.90;;;4.00;99.90;3.80;99557.00;;;;4976281;28;100328;-70
2022/01/06 02:44:57;;;;;;;3.53;1.50;;;4.00;99.90;3.80;99574.00;;;;4994984;28;88739;-69
2022/01/06 02:47:22;;;;;;;5.50;2.13;;;4.00;99.90;3.80;99568.00;;;;4993832;27;110273;-70
2022/01/06 02:49:48;;;;;;;1.30;1.20;;;4.00;99.90;3.80;99577.00;;;;4994292;27;109076;-71
2022/01/06 02:52:14;;;;;;;3.30;1.63;;;4.00;99.90;3.80;99598.00;;;;4993940;27;103052;-70
2022/01/06 02:54:39;;;;;;;3.07;1.17;;;4.10;99.90;3.80;99600.00;;;;4994818;27;87771;-75
2022/01/06 02:57:05;;;;;;;1.70;0.67;;;4.00;99.90;3.70;99618.00;;;;4975465;28;110647;-80
2022/01/06 02:59:31;;;;;;;3.53;0.50;;;3.90;99.90;3.30;99626.00;;;;4974746;28;107965;-73
2022/01/06 03:01:56;;;;;;;0.40;0.30;;;3.70;99.90;3.00;99633.00;;;;4997563;27;88706;-69
2022/01/06 03:04:23;;;;;;;0.43;0.37;;;3.40;99.90;2.80;99629.00;;;;5013269;27;87145;-73
2022/01/06 03:06:50;;;;;;;1.00;0.63;;;3.20;99.90;2.70;99637.00;;;;5014345;27;87951;-72
2022/01/06 03:09:24;;;;;;;0.40;0.40;;;3.00;99.90;2.60;99644.00;;;;5014253;27;87666;-74
2022/01/06 03:11:51;;;;;;;3.87;0.50;;;2.80;99.90;2.50;99655.00;;;;5012080;27;89179;-73
2022/01/06 03:14:17;;;;;;;0.53;0.50;;;3.30;99.90;2.50;99651.00;;;;4985555;28;88927;-72
2022/01/06 03:16:42;;;;;;;0.73;0.50;;;2.80;99.90;2.40;99652.00;;;;4999352;27;100328;-74
2022/01/06 03:19:09;;;;;;;0.47;0.47;;;2.70;99.90;2.40;99664.00;;;;5014589;27;87917;-72
2022/01/06 03:21:35;;;;;;;0.73;0.50;;;3.10;99.90;2.40;99662.00;;;;4995141;27;88147;-73
2022/01/06 03:24:01;;;;;;;0.30;0.30;;;2.70;99.90;2.40;99665.00;;;;5013352;27;118041;-71
2022/01/06 03:26:26;;;;;;;2.43;0.53;;;2.70;99.90;2.40;99674.00;;;;5015309;27;92013;-73
2022/01/06 03:28:52;;;;;;;0.80;0.60;;;2.70;99.90;2.40;99683.00;;;;5014332;27;109229;-73
2022/01/06 03:31:18;;;;;;;1.10;0.63;;;3.30;99.90;2.40;99695.00;;;;5014791;27;88390;-72
2022/01/06 03:33:44;;;;;;;0.60;0.47;;;3.10;99.90;2.40;99698.00;;;;4993461;27;117984;-73
2022/01/06 03:36:09;;;;;;;0.93;0.60;;;2.70;99.90;2.40;99700.00;;;;5013804;27;109879;-70
2022/01/06 03:38:35;;;;;;;1.60;0.40;;;3.30;99.90;2.40;99693.00;;;;4996466;27;107915;-73
2022/01/06 03:41:01;;;;;;;0.73;0.40;;;2.60;99.90;2.40;99697.00;;;;5003545;27;117248;-71
2022/01/06 03:43:27;;;;;;;0.93;0.33;;;3.10;99.90;2.40;99696.00;;;;5011932;27;107368;-72
2022/01/06 03:45:52;;;;;;;1.33;0.70;;;2.60;99.90;2.40;99717.00;;;;5015348;27;87811;-72
2022/01/06 03:48:18;;;;;;;0.57;0.40;;;3.30;99.90;2.40;99721.00;;;;5012890;27;110279;-72
2022/01/06 03:50:44;;;;;;;2.30;0.90;;;3.40;99.90;2.40;99718.00;;;;4990913;28;89061;-71
2022/01/06 03:53:09;;;;;;;2.10;0.40;;;3.40;99.90;2.40;99726.00;;;;4992766;28;117430;-71
2022/01/06 03:55:36;;;;;;;6.13;0.43;;;2.60;99.90;2.30;99733.00;;;;4993801;28;108356;-71
2022/01/06 03:58:02;;;;;;;1.13;0.70;;;2.60;99.90;2.30;99731.00;;;;5004083;27;87584;-71
2022/01/06 04:00:28;;;;;;;2.03;0.90;;;2.50;99.90;2.20;99724.00;;;;5014106;27;120608;-70
2022/01/06 04:02:54;;;;;;;2.87;0.60;;;2.70;99.90;2.10;99751.00;;;;4986120;28;116792;-71
2022/01/06 04:05:19;;;;;;;0.73;0.53;;;3.20;99.90;2.00;99754.00;;;;4997498;27;91266;-70
2022/01/06 04:07:45;;;;;;;1.07;0.67;;;2.70;99.90;1.90;99747.00;;;;5002868;27;87752;-70
2022/01/06 04:10:11;;;;;;;0.73;0.70;;;2.20;99.90;1.80;99759.00;;;;5017156;27;88085;-71
2022/01/06 04:12:38;;;;;;;5.27;0.63;;;2.10;99.90;1.70;99764.00;;;;4989844;28;88061;-70
2022/01/06 04:15:10;;;;;;;1.67;0.80;;;2.90;99.90;1.60;99755.00;;;;4979254;28;87885;-71
2022/01/06 04:17:36;;;;;;;1.87;1.00;;;1.90;99.90;1.50;99758.00;;;;5007867;27;87212;-71
2022/01/06 04:20:03;;;;;;;0.70;0.70;;;1.80;99.90;1.40;99754.00;;;;4998511;27;91686;-71
2022/01/06 04:22:28;;;;;;;1.40;0.83;;;1.80;99.90;1.30;99773.00;;;;5016906;27;96827;-70
2022/01/06 04:24:54;;;;;;;1.43;0.63;;;1.60;99.90;1.30;99769.00;;;;5016509;27;108018;-70
2022/01/06 04:27:20;;;;;;;5.50;0.77;;;1.60;99.90;1.20;99777.00;;;;5017502;27;106673;-70
2022/01/06 04:29:45;;;;;;;1.07;0.50;;;1.60;99.90;1.20;99785.00;;;;5017250;27;116000;-70
2022/01/06 04:32:11;;;;;;;1.20;0.87;;;2.20;99.90;1.10;99784.00;;;;5016395;27;118502;-70
2022/01/06 04:34:37;;;;;;;2.67;1.20;;;1.40;99.90;1.10;99802.00;;;;5017351;27;110600;-69
2022/01/06 04:37:03;;;;;;;2.73;0.73;;;1.50;99.90;1.10;99803.00;;;;5007324;27;108246;-70
2022/01/06 04:39:29;;;;;;;6.20;0.83;;;1.30;99.90;1.10;99805.00;;;;4995888;28;117732;-70
2022/01/06 04:41:54;;;;;;;2.67;0.80;;;1.30;99.90;1.00;99817.00;;;;4980908;27;117810;-69
2022/01/06 04:44:20;;;;;;;1.90;0.90;;;1.30;99.90;1.00;99822.00;;;;5016925;27;108941;-71
2022/01/06 04:46:46;;;;;;;2.77;0.87;;;1.30;99.90;1.00;99827.00;;;;5016620;27;101530;-68
2022/01/06 04:49:12;;;;;;;1.93;0.60;;;1.30;99.90;0.90;99826.00;;;;5015892;27;90323;-71
2022/01/06 04:51:38;;;;;;;1.33;0.70;;;1.20;99.90;0.90;99826.00;;;;5017511;27;101414;-69
2022/01/06 04:54:06;;;;;;;4.30;0.93;;;2.10;99.90;0.90;99842.00;;;;5015596;27;98053;-69
2022/01/06 04:56:36;;;;;;;1.30;0.87;;;1.20;99.90;0.90;99845.00;;;;4996982;27;87618;-69
2022/01/06 04:59:04;;;;;;;4.03;0.97;;;1.20;99.90;0.90;99834.00;;;;4997194;28;87507;-70
2022/01/06 05:01:30;;;;;;;1.23;0.83;;;2.10;99.90;0.90;99857.00;;;;4996864;27;88254;-73
2022/01/06 05:03:55;;;;;;;2.70;1.10;;;1.10;99.90;0.90;99866.00;;;;5003120;27;87890;-70
2022/01/06 05:06:21;;;;;;;4.23;1.00;;;1.20;99.90;0.90;99867.00;;;;5000313;27;87151;-69
2022/01/06 05:08:47;;;;;;;1.10;0.80;;;2.00;99.90;0.80;99874.00;;;;5000047;27;117348;-71
2022/01/06 05:11:12;;;;;;;0.93;0.80;;;1.60;99.90;0.80;99875.00;;;;5016642;27;116517;-70
2022/01/06 05:13:38;;;;;;;2.03;0.70;;;1.20;99.90;0.80;99879.00;;;;5014755;27;94480;-72
2022/01/06 05:16:04;;;;;;;0.83;0.50;;;1.10;99.90;0.70;99883.00;;;;5016783;27;102170;-72
2022/01/06 05:18:30;;;;;;;2.67;0.50;;;1.00;99.90;0.70;99884.00;;;;5017071;27;89005;-73
2022/01/06 05:20:55;;;;;;;3.93;0.80;;;1.60;99.90;0.60;99887.00;;;;4979309;27;118215;-72
2022/01/06 05:23:21;;;;;;;0.63;0.47;;;0.90;99.90;0.50;99888.00;;;;5015512;27;108309;-72
2022/01/06 05:25:47;;;;;;;0.60;0.50;;;0.80;99.90;0.50;99900.00;;;;5017188;27;87867;-71
2022/01/06 05:28:12;;;;;;;0.40;0.40;;;0.70;99.90;0.40;99911.00;;;;5013862;27;89475;-71
2022/01/06 05:30:38;;;;;;;0.63;0.63;;;0.80;99.90;0.30;99908.00;;;;5006100;27;117851;-71
2022/01/06 05:33:04;;;;;;;0.90;0.60;;;0.70;99.90;0.30;99912.00;;;;5004275;27;87690;-70
2022/01/06 05:35:29;;;;;;;2.40;0.90;;;0.60;99.90;0.20;99916.00;;;;5016695;27;87703;-73
2022/01/06 05:37:55;;;;;;;1.10;0.67;;;0.60;99.90;0.20;99922.00;;;;5014939;27;118912;-72
2022/01/06 05:40:21;;;;;;;1.20;0.70;;;1.00;99.90;0.20;99916.00;;;;5015540;27;116745;-71
2022/01/06 05:42:48;;;;;;;0.43;0.43;;;0.50;99.90;0.20;99932.00;;;;4986017;28;110519;-71
2022/01/06 05:45:15;;;;;;;0.53;0.53;;;0.50;99.90;0.10;99930.00;;;;4978852;28;87870;-72
2022/01/06 05:47:41;;;;;;;2.23;0.67;;;0.40;99.90;0.10;99939.00;;;;5006156;27;88776;-70
2022/01/06 05:50:08;;;;;;;1.17;0.87;;;0.50;99.90;0.10;99945.00;;;;5016341;27;87765;-71
2022/01/06 05:52:35;;;;;;;0.90;0.60;;;0.50;99.90;0.10;99946.00;;;;5015502;27;87769;-71
2022/01/06 05:55:02;;;;;;;0.87;0.53;;;0.50;99.90;0.10;99949.00;;;;5016842;27;92615;-71
2022/01/06 05:57:28;;;;;;;1.43;0.70;;;0.40;99.90;0.10;99963.00;;;;4985289;27;87870;-70
2022/01/06 05:59:53;;;;;;;0.53;0.53;;;0.40;99.90;0.10;99970.00;;;;5015367;27;118383;-70
2022/01/06 06:02:19;;;;;;;2.30;0.93;;;0.40;99.90;0.00;99972.00;;;;4996675;27;109066;-70
2022/01/06 06:04:46;;;;;;;1.13;0.60;;;1.30;99.90;0.00;99981.00;;;;4995354;28;108563;-71
2022/01/06 06:07:11;;;;;;;2.00;0.77;;;0.30;99.90;-0.10;99987.00;;;;4996799;27;88630;-69
2022/01/06 06:09:37;;;;;;;1.47;0.87;;;0.20;99.90;-0.20;99983.00;;;;4995584;28;88318;-72
2022/01/06 06:12:06;;;;;;;1.13;0.70;;;0.70;99.90;-0.20;99998.00;;;;5007093;27;104896;-70
2022/01/06 06:14:32;;;;;;;2.50;1.27;;;0.20;99.90;-0.30;100006.00;;;;4996959;27;87838;-71
2022/01/06 06:16:58;;;;;;;2.30;0.50;;;0.80;99.90;-0.30;100004.00;;;;5015632;27;105349;-70
2022/01/06 06:19:23;;;;;;;1.87;0.50;;;0.00;99.90;-0.30;100023.00;;;;5015167;27;105596;-73
2022/01/06 06:21:52;;;;;;;1.33;0.40;;;0.00;99.90;-0.40;100019.00;;;;5015228;27;111704;-70
2022/01/06 06:24:20;;;;;;;0.80;0.63;;;0.00;99.90;-0.40;100039.00;;;;5015369;27;87734;-70
2022/01/06 06:26:45;;;;;;;2.50;0.53;;;-0.10;99.90;-0.40;100053.00;;;;5014994;27;90134;-71
2022/01/06 06:29:11;;;;;;;2.47;0.67;;;-0.10;99.90;-0.50;100060.00;;;;4996292;27;108168;-69
2022/01/06 06:31:37;;;;;;;1.03;0.80;;;-0.20;99.90;-0.50;100068.00;;;;5015224;27;109650;-70
2022/01/06 06:34:02;;;;;;;0.50;0.50;;;-0.30;99.90;-0.50;100084.00;;;;5014182;27;107821;-70
2022/01/06 06:36:28;;;;;;;0.40;0.40;;;0.20;99.90;-0.60;100076.00;;;;5015630;27;107538;-70
2022/01/06 06:38:54;;;;;;;7.50;0.77;;;-0.20;99.90;-0.60;100088.00;;;;5014542;27;117747;-69
2022/01/06 06:41:19;;;;;;;1.33;0.73;;;-0.10;99.90;-0.60;100099.00;;;;5015182;27;98960;-68
2022/01/06 06:43:45;;;;;;;0.37;0.37;;;-0.20;99.90;-0.60;100094.00;;;;5015104;27;108924;-70
2022/01/06 06:46:11;;;;;;;0.30;0.30;;;-0.30;99.90;-0.60;100094.00;;;;5014930;27;103453;-69
2022/01/06 06:48:37;;;;;;;9.07;0.90;;;-0.30;99.90;-0.60;100105.00;;;;5014152;27;117994;-70
2022/01/06 06:51:02;;;;;;;0.47;0.47;;;-0.30;99.90;-0.70;100120.00;;;;5014639;27;108676;-70
2022/01/06 06:53:29;;;;;;;0.93;0.73;;;-0.30;99.90;-0.70;100135.00;;;;5014117;27;109113;-71
2022/01/06 06:55:55;;;;;;;2.87;0.47;;;0.00;99.90;-0.70;100139.00;;;;4980700;27;88480;-71
2022/01/06 06:58:20;;;;;;;1.53;0.77;;;-0.30;99.90;-0.70;100152.00;;;;5014755;27;88127;-69
2022/01/06 07:00:46;;;;;;;2.13;0.97;;;-0.40;99.90;-0.80;100158.00;;;;4996092;27;111131;-70
2022/01/06 07:03:12;;;;;;;2.00;0.47;;;-0.50;99.90;-0.80;100168.00;;;;5014300;27;107998;-69
2022/01/06 07:05:37;;;;;;;1.07;0.53;;;-0.50;99.90;-0.80;100173.00;;;;5014243;27;118019;-68
2022/01/06 07:08:03;;;;;;;2.63;0.40;;;-0.50;99.90;-0.80;100168.00;;;;5015433;27;87709;-68
2022/01/06 07:10:29;;;;;;;4.23;0.73;;;-0.50;99.90;-0.90;100189.00;;;;5008198;27;98069;-68
2022/01/06 07:12:55;;;;;;;0.83;0.60;;;-0.50;99.90;-0.90;100182.00;;;;5016032;27;108951;-71
2022/01/06 07:15:20;;;;;;;0.40;0.40;;;-0.50;99.90;-1.00;100191.00;;;;4999528;27;119389;-70
2022/01/06 07:17:46;;;;;;;0.73;0.47;;;-0.60;99.90;-1.00;100199.00;;;;4994951;27;88072;-68
2022/01/06 07:20:12;;;;;;;1.27;0.50;;;-0.30;99.90;-1.00;100206.00;;;;4986501;28;110541;-67
2022/01/06 07:22:38;;;;;;;1.30;0.93;;;-0.60;99.90;-1.00;100204.00;;;;4995236;27;109816;-69
2022/01/06 07:25:05;;;;;;;0.50;0.50;;;-0.60;99.90;-1.00;100222.00;;;;5014467;27;88804;-67
2022/01/06 07:27:31;;;;;;;0.40;0.37;;;-0.60;99.90;-1.00;100224.00;;;;5014567;27;88777;-70
2022/01/06 07:29:57;;;;;;;0.67;0.63;;;-0.60;99.90;-1.00;100236.00;;;;4986576;27;87993;-68
2022/01/06 07:32:24;;;;;;;0.20;0.20;;;-0.70;99.90;-1.00;100238.00;;;;4998854;27;100903;-68
2022/01/06 07:34:51;;;;;;;0.60;0.30;;;0.40;99.90;-0.90;100246.00;;;;4975298;27;88097;-68
2022/01/06 07:37:16;;;;;;;0.50;0.40;;;-0.60;99.90;-0.80;100238.00;;;;4975752;28;87879;-67
2022/01/06 07:39:42;;;;;;;3.00;0.60;;;-0.50;99.90;-0.60;100249.00;;;;4984901;28;111096;-68
2022/01/06 07:42:08;;;;;;;5.23;0.67;;;-0.40;99.90;-0.50;100258.00;;;;4994893;27;97178;-68
2022/01/06 07:44:34;;;;;;;0.73;0.50;;;-0.30;99.90;-0.30;100264.00;;;;4993563;28;102010;-70
2022/01/06 07:47:00;;;;;;;1.77;0.67;;;-0.10;99.90;-0.20;100271.00;;;;4997047;27;117025;-67
2022/01/06 07:49:27;;;;;;;0.67;0.57;;;0.10;99.90;0.00;100281.00;;;;5006486;27;87681;-69
2022/01/06 07:51:54;;;;;;;0.90;0.57;;;0.30;99.90;0.20;100275.00;;;;5012841;27;87579;-68
2022/01/06 07:54:21;;;;;;;2.27;0.50;;;0.50;99.90;0.30;100282.00;;;;5013764;27;89038;-68
2022/01/06 07:56:46;;;;;;;1.17;0.73;;;0.60;99.90;0.50;100296.00;;;;5008467;27;89119;-69
2022/01/06 07:59:12;;;;;;;1.10;0.70;;;0.70;99.90;0.60;100300.00;;;;4975629;28;88257;-70
2022/01/06 08:01:38;;;;;;;2.17;1.17;;;0.80;99.90;0.70;100304.00;;;;4996395;27;87691;-70
2022/01/06 08:04:04;;;;;;;0.67;0.67;;;1.00;99.90;0.90;100301.00;;;;4992182;27;118024;-72
2022/01/06 08:06:30;;;;;;;1.10;0.60;;;1.10;99.90;1.00;100318.00;;;;4993033;28;118586;-73
2022/01/06 08:08:55;;;;;;;1.83;0.87;;;1.40;99.90;1.10;100310.00;;;;5001531;27;109787;-70
2022/01/06 08:11:21;;;;;;;1.30;0.77;;;1.40;99.90;1.30;100316.00;;;;5013534;27;107729;-70
2022/01/06 08:13:47;;;;;;;4.43;0.90;;;1.60;99.90;1.40;100324.00;;;;5011267;27;97625;-72
2022/01/06 08:16:13;;;;;;;1.90;0.80;;;1.60;99.90;1.50;100330.00;;;;5000420;27;116943;-71
2022/01/06 08:18:38;;;;;;;0.63;0.30;;;2.70;99.90;1.60;100330.00;;;;4994241;28;87582;-70
2022/01/06 08:21:04;;;;;;;0.40;0.40;;;2.20;99.90;1.80;100339.00;;;;4997930;27;108368;-71
2022/01/06 08:23:30;;;;;;;0.90;0.70;;;2.00;99.90;1.90;100347.00;;;;5012840;27;117851;-69
2022/01/06 08:25:56;;;;;;;0.83;0.50;;;2.20;99.90;2.00;100345.00;;;;5014100;27;88029;-69
2022/01/06 08:28:22;;;;;;;1.13;0.87;;;2.30;99.90;2.10;100331.00;;;;5014284;27;88618;-70
2022/01/06 08:30:48;;;;;;;1.57;0.60;;;2.40;99.90;2.20;100357.00;;;;5014749;27;87711;-68
2022/01/06 08:33:15;;;;;;;0.73;0.57;;;2.50;99.90;2.30;100360.00;;;;5010259;27;117696;-71
2022/01/06 08:35:41;;;;;;;4.43;0.80;;;2.60;99.90;2.40;100359.00;;;;4995013;27;88130;-70
2022/01/06 08:38:07;;;;;;;1.53;0.80;;;3.40;99.90;2.50;100363.00;;;;4993780;28;99058;-70
2022/01/06 08:40:33;;;;;;;1.63;0.50;;;2.80;99.90;2.60;100360.00;;;;4993086;28;109129;-69
2022/01/06 08:42:58;;;;;;;2.93;0.87;;;2.90;99.90;2.70;100354.00;;;;4994782;27;88899;-70
2022/01/06 08:45:24;;;;;;;1.07;0.87;;;3.00;99.90;2.90;100368.00;;;;4995371;27;91198;-70
2022/01/06 08:47:50;;;;;;;5.20;0.70;;;3.70;99.90;3.00;100371.00;;;;5016375;27;111028;-68
2022/01/06 08:50:16;;;;;;;2.10;1.10;;;3.20;99.90;3.10;100375.00;;;;5017392;27;87719;-68
2022/01/06 08:52:42;;;;;;;1.33;0.90;;;4.10;99.90;3.20;100372.00;;;;5013281;27;116315;-68
2022/01/06 08:55:09;;;;;;;2.90;1.00;;;3.50;99.90;3.40;100383.00;;;;5011835;27;88946;-69
2022/01/06 08:57:36;;;;;;;1.10;0.80;;;3.60;99.90;3.50;100377.00;;;;5017521;27;87810;-70
2022/01/06 09:00:10;;;;;;;0.93;0.87;;;3.70;99.90;3.60;100381.00;;;;5016720;27;87787;-69
2022/01/06 09:02:36;;;;;;;1.07;0.70;;;3.90;99.90;3.70;100389.00;;;;5017304;27;88607;-68
2022/01/06 09:05:05;;;;;;;1.17;1.00;;;4.00;99.90;3.80;100397.00;;;;5008831;27;88281;-70
2022/01/06 09:07:33;;;;;;;3.00;1.20;;;4.10;99.90;3.90;100391.00;;;;4998465;27;87696;-68
2022/01/06 09:09:59;;;;;;;0.60;0.60;;;4.10;99.90;4.00;100394.00;;;;4997890;27;87006;-70
2022/01/06 09:12:25;;;;;;;1.50;0.93;;;4.30;99.90;4.30;100400.00;;;;4998298;27;88047;-69
2022/01/06 09:14:51;;;;;;;1.47;1.00;;;4.40;99.90;4.50;100414.00;;;;5009354;27;87838;-68
2022/01/06 09:17:17;;;;;;;2.37;0.87;;;4.60;99.90;4.60;100415.00;;;;5016023;27;88739;-68
2022/01/06 09:19:42;;;;;;;1.57;0.67;;;4.80;99.90;4.70;100415.00;;;;5003416;27;88852;-69
2022/01/06 09:22:08;;;;;;;1.47;0.80;;;4.80;99.90;4.80;100409.00;;;;4996210;27;87717;-68
2022/01/06 09:24:35;;;;;;;2.60;1.07;;;5.50;99.90;4.90;100411.00;;;;4996251;27;100565;-69
2022/01/06 09:27:00;;;;;;;2.00;1.00;;;5.10;99.90;4.90;100418.00;;;;4996432;27;110657;-69
2022/01/06 09:29:26;;;;;;;1.17;0.80;;;5.10;99.90;4.90;100435.00;;;;4995765;28;108980;-69
2022/01/06 09:31:52;;;;;;;2.23;0.73;;;5.10;99.90;5.20;100449.00;;;;4995617;27;117327;-70
2022/01/06 09:34:17;;;;;;;1.60;0.97;;;5.30;99.90;5.30;100449.00;;;;4995590;28;118231;-69
2022/01/06 09:36:43;;;;;;;7.63;1.30;;;5.40;99.90;5.40;100440.00;;;;4996983;27;109694;-69
2022/01/06 09:39:11;;;;;;;0.97;0.93;;;5.60;99.90;5.20;100440.00;;;;4998930;27;89006;-70
2022/01/06 09:41:37;;;;;;;1.03;0.77;;;5.50;99.90;5.20;100433.00;;;;5015741;27;89066;-69
2022/01/06 09:44:03;;;;;;;2.20;0.90;;;5.50;99.90;5.00;100454.00;;;;5015725;27;89533;-69
2022/01/06 09:46:30;;;;;;;3.60;0.97;;;5.30;99.90;5.10;100454.00;;;;5016803;27;87651;-70
2022/01/06 09:48:59;;;;;;;1.00;0.87;;;5.20;99.90;5.10;100456.00;;;;5017052;27;87979;-68
2022/01/06 09:51:30;;;;;;;1.33;0.80;;;5.30;99.90;5.20;100449.00;;;;5015050;27;88058;-68
2022/01/06 09:53:59;;;;;;;0.63;0.63;;;5.40;99.90;5.30;100462.00;;;;5016449;27;89021;-69
2022/01/06 09:56:27;;;;;;;1.33;0.93;;;5.50;99.90;5.40;100473.00;;;;5015356;27;87805;-69
2022/01/06 09:58:57;;;;;;;1.03;0.93;;;5.60;99.90;5.50;100468.00;;;;5016338;27;87047;-69
2022/01/06 10:01:23;;;;;;;2.70;1.07;;;5.70;99.90;5.60;100468.00;;;;5013325;27;117108;-69
2022/01/06 10:03:49;;;;;;;5.47;1.30;;;5.80;99.90;5.60;100461.00;;;;5015703;27;88239;-69
2022/01/06 10:06:27;;;;;;;1.37;0.83;;;5.80;98.40;5.60;100475.00;;;;5015976;27;88541;-68
2022/01/06 10:09:04;;;;;;;1.27;1.10;;;5.80;98.40;5.60;100475.00;;;;4999981;27;87854;-69
2022/01/06 10:11:35;;;;;;;1.53;0.73;;;5.80;98.40;5.70;100477.00;;;;4996897;27;89268;-69
2022/01/06 10:14:19;;;;;;;3.70;0.67;;;5.90;98.90;5.80;100490.00;;;;4995661;27;88199;-69
2022/01/06 10:16:48;;;;;;;1.80;0.93;;;6.00;98.50;5.90;100482.00;;;;5002045;27;87828;-68
2022/01/06 10:19:15;;;;;;;0.73;0.60;;;6.10;98.50;6.00;100493.00;;;;5016524;27;88012;-69
2022/01/06 10:21:48;;;;;;;1.90;1.03;;;6.10;98.60;6.10;100497.00;;;;5006582;27;89079;-69
2022/01/06 10:24:22;;;;;;;0.83;0.73;;;6.30;98.40;6.20;100492.00;;;;4995716;27;87744;-69
2022/01/06 10:27:06;;;;;;;2.00;0.80;;;6.40;97.80;6.40;100496.00;;;;4984534;28;88167;-69
2022/01/06 10:29:38;;;;;;;1.53;0.83;;;6.50;97.50;6.50;100497.00;;;;4996081;28;88085;-70
2022/01/06 10:32:13;;;;;;;3.03;0.50;;;6.60;98.00;6.80;100506.00;;;;4976277;28;89010;-69
2022/01/06 10:34:46;;;;;;;0.77;0.60;;;6.80;97.90;6.80;100508.00;;;;4995825;28;89581;-70
2022/01/06 10:37:26;;;;;;;0.57;0.57;;;6.90;95.90;6.50;100500.00;;;;4994770;27;87941;-68
2022/01/06 10:39:58;;;;;;;2.17;0.77;;;7.40;96.20;6.30;100500.00;;;;5016152;27;87685;-68
2022/01/06 10:42:30;;;;;;;3.17;1.23;;;6.60;95.70;6.00;100514.00;;;;4992637;28;89248;-68
2022/01/06 10:45:08;;;;;;;1.50;0.90;;;6.30;95.60;6.00;100512.00;;;;4994939;28;87886;-69
2022/01/06 10:47:34;;;;;;;1.87;0.70;;;6.20;97.00;6.00;100509.00;;;;4971092;28;87702;-70
2022/01/06 10:50:37;;;;;;;0.87;0.60;;;6.20;96.70;5.80;100515.00;;;;4995936;28;86616;-70
2022/01/06 10:53:10;;;;;;;1.20;0.57;;;6.10;96.30;5.80;100506.00;;;;4943601;28;90493;-70
2022/01/06 10:55:45;;;;;;;1.73;0.90;;;6.00;96.20;5.80;100512.00;;;;4994562;27;90302;-70
2022/01/06 10:58:16;;;;;;;1.17;0.47;;;6.00;95.80;6.00;100506.00;;;;4995014;28;88597;-71
2022/01/06 11:01:02;;;;;;;1.10;0.70;;;7.00;96.20;6.20;100496.00;;;;4995807;27;87565;-70
2022/01/06 11:03:36;;;;;;;2.70;0.77;;;6.30;95.70;6.40;100508.00;;;;4994726;27;118853;-70
2022/01/06 11:06:04;;;;;;;1.60;0.60;;;6.40;95.80;6.50;100512.00;;;;4975963;27;88535;-70
2022/01/06 11:08:39;;;;;;;0.93;0.77;;;6.60;94.70;6.60;100507.00;;;;4995426;28;87792;-72